createdAt,value
2023-04-20T00:01:13.315Z,2.40
2023-04-20T00:03:58.875Z,2.20
2023-04-20T00:06:45.394Z,2.53
2023-04-20T00:09:31.819Z,2.33
2023-04-20T00:12:17.133Z,2.50
2023-04-20T00:15:02.676Z,2.50
2023-04-20T00:17:48.686Z,2.40
2023-04-20T00:20:35.053Z,2.33
2023-04-20T00:23:20.826Z,2.70
2023-04-20T00:26:06.221Z,2.72
2023-04-20T00:28:51.945Z,2.40
2023-04-20T00:31:37.380Z,2.67
2023-04-20T00:34:22.948Z,2.40
2023-04-20T00:37:07.914Z,2.92
2023-04-20T00:39:53.397Z,2.65
2023-04-20T00:42:40.908Z,2.97
2023-04-20T00:45:26.345Z,2.80
2023-04-20T00:48:12.062Z,2.78
2023-04-20T00:50:57.764Z,2.47
2023-04-20T00:53:43.083Z,2.40
2023-04-20T00:56:28.386Z,2.42
2023-04-20T00:59:14.064Z,2.22
2023-04-20T01:02:00.020Z,2.47
2023-04-20T01:04:47.441Z,2.65
2023-04-20T01:07:32.811Z,2.63
2023-04-20T01:10:18.386Z,2.83
2023-04-20T01:13:03.940Z,3.13
2023-04-20T01:15:51.480Z,3.10
2023-04-20T01:18:51.032Z,2.97
2023-04-20T01:21:36.266Z,3.10
2023-04-20T01:24:22.242Z,3.20
2023-04-20T01:27:07.554Z,3.03
2023-04-20T01:29:53.214Z,3.67
2023-04-20T01:32:39.402Z,3.30
2023-04-20T01:35:25.384Z,3.33
2023-04-20T01:38:10.743Z,3.38
2023-04-20T01:40:56.550Z,3.30
2023-04-20T01:43:41.673Z,3.67
2023-04-20T01:46:27.207Z,3.33
2023-04-20T01:49:12.454Z,3.58
2023-04-20T01:51:57.856Z,3.70
2023-04-20T01:54:43.099Z,3.70
2023-04-20T01:57:28.713Z,3.78
2023-04-20T02:00:16.283Z,3.72
2023-04-20T02:03:02.544Z,3.63
2023-04-20T02:05:48.237Z,3.58
2023-04-20T02:08:33.683Z,3.58
2023-04-20T02:11:18.922Z,3.20
2023-04-20T02:14:04.332Z,3.38
2023-04-20T02:16:49.703Z,3.50
2023-04-20T02:19:35.319Z,3.47
2023-04-20T02:22:20.730Z,3.13
2023-04-20T02:25:06.937Z,2.80
2023-04-20T02:27:52.131Z,3.08
2023-04-20T02:30:37.707Z,3.10
2023-04-20T02:33:22.931Z,2.88
2023-04-20T02:36:11.928Z,2.90
2023-04-20T02:38:58.578Z,2.75
2023-04-20T02:41:45.987Z,2.60
2023-04-20T02:44:31.634Z,2.40
2023-04-20T02:47:17.001Z,2.67
2023-04-20T02:50:02.573Z,2.30
2023-04-20T02:52:49.533Z,2.45
2023-04-20T02:55:34.874Z,2.03
2023-04-20T02:58:26.598Z,1.77
2023-04-20T03:01:30.438Z,1.92
2023-04-20T03:04:32.077Z,2.15
2023-04-20T03:07:27.822Z,2.05
2023-04-20T03:10:13.425Z,2.55
2023-04-20T03:13:34.194Z,2.22
2023-04-20T03:16:22.295Z,2.42
2023-04-20T03:19:10.016Z,2.00
2023-04-20T03:21:55.955Z,2.33
2023-04-20T03:24:41.227Z,1.90
2023-04-20T03:27:36.846Z,1.90
2023-04-20T03:30:29.574Z,1.70
2023-04-20T03:33:22.466Z,1.92
2023-04-20T03:36:08.016Z,2.15
2023-04-20T03:38:53.405Z,1.73
2023-04-20T03:41:38.720Z,2.13
2023-04-20T03:44:24.338Z,1.70
2023-04-20T03:47:10.931Z,2.03
2023-04-20T03:49:56.407Z,1.60
2023-04-20T03:52:41.852Z,1.90
2023-04-20T03:55:28.934Z,2.00
2023-04-20T03:58:18.925Z,1.63
2023-04-20T04:01:16.722Z,1.98
2023-04-20T04:04:06.384Z,1.60
2023-04-20T04:06:52.346Z,1.63
2023-04-20T04:09:37.807Z,1.52
2023-04-20T04:12:23.575Z,1.80
2023-04-20T04:15:10.705Z,1.70
2023-04-20T04:18:03.996Z,1.80
2023-04-20T04:20:52.327Z,1.83
2023-04-20T04:23:38.788Z,1.60
2023-04-20T04:26:31.757Z,1.67
2023-04-20T04:29:17.281Z,1.75
2023-04-20T04:32:04.258Z,1.60
2023-04-20T04:34:50.371Z,1.50
2023-04-20T04:37:35.989Z,1.75
2023-04-20T04:40:21.962Z,1.70
2023-04-20T04:43:10.670Z,2.00
2023-04-20T04:45:58.771Z,2.13
2023-04-20T04:48:46.442Z,1.73
2023-04-20T04:51:31.910Z,1.90
2023-04-20T04:54:17.247Z,1.90
2023-04-20T04:57:03.110Z,2.10
2023-04-20T04:59:48.314Z,2.08
2023-04-20T05:02:34.010Z,2.10
2023-04-20T05:05:20.409Z,1.80
2023-04-20T05:08:05.807Z,1.83
2023-04-20T05:10:51.262Z,1.70
2023-04-20T05:13:36.494Z,1.98
2023-04-20T05:16:21.725Z,1.80
2023-04-20T05:19:07.069Z,2.13
2023-04-20T05:21:52.601Z,1.92
2023-04-20T05:24:37.923Z,2.15
2023-04-20T05:27:23.254Z,2.08
2023-04-20T05:30:19.504Z,1.80
2023-04-20T05:33:06.469Z,2.10
2023-04-20T05:35:58.507Z,2.28
2023-04-20T05:38:43.559Z,2.03
2023-04-20T05:41:29.131Z,2.30
2023-04-20T05:44:14.488Z,1.85
2023-04-20T05:47:00.111Z,1.80
2023-04-20T05:49:45.995Z,2.10
2023-04-20T05:52:31.363Z,2.33
2023-04-20T05:55:18.946Z,1.95
2023-04-20T05:58:05.838Z,2.03
2023-04-20T06:00:51.218Z,1.85
2023-04-20T06:03:36.751Z,2.10
2023-04-20T06:06:22.561Z,1.70
2023-04-20T06:09:08.121Z,1.85
2023-04-20T06:11:53.536Z,1.70
2023-04-20T06:14:39.051Z,1.90
2023-04-20T06:17:24.550Z,2.10
2023-04-20T06:20:11.508Z,2.20
2023-04-20T06:22:57.064Z,2.10
2023-04-20T06:25:42.981Z,2.38
2023-04-20T06:28:28.358Z,2.17
2023-04-20T06:31:13.694Z,2.20
2023-04-20T06:33:58.953Z,2.67
2023-04-20T06:36:44.728Z,1.95
2023-04-20T06:39:29.712Z,2.20
2023-04-20T06:42:16.136Z,2.22
2023-04-20T06:45:01.484Z,2.53
2023-04-20T06:47:46.935Z,2.35
2023-04-20T06:50:32.211Z,2.60
2023-04-20T06:53:17.570Z,2.63
2023-04-20T06:56:03.025Z,2.33
2023-04-20T06:58:48.780Z,2.40
2023-04-20T07:01:34.383Z,2.45
2023-04-20T07:04:19.991Z,2.15
2023-04-20T07:07:05.218Z,2.40
2023-04-20T07:09:50.967Z,2.20
2023-04-20T07:12:37.508Z,2.33
2023-04-20T07:15:23.156Z,2.40
2023-04-20T07:18:08.371Z,2.20
2023-04-20T07:20:53.649Z,2.38
2023-04-20T07:23:41.826Z,2.38
2023-04-20T07:26:28.061Z,2.05
2023-04-20T07:29:13.474Z,2.55
2023-04-20T07:31:59.056Z,2.40
2023-04-20T07:34:44.334Z,2.22
2023-04-20T07:37:29.974Z,2.65
2023-04-20T07:40:16.820Z,2.40
2023-04-20T07:43:02.239Z,2.20
2023-04-20T07:45:48.600Z,2.35
2023-04-20T07:48:34.976Z,2.75
2023-04-20T07:51:20.120Z,2.72
2023-04-20T07:54:05.638Z,3.28
2023-04-20T07:56:51.114Z,3.20
2023-04-20T07:59:36.663Z,3.33
2023-04-20T08:02:22.158Z,2.80
2023-04-20T08:05:10.113Z,2.83
2023-04-20T08:07:55.907Z,3.28
2023-04-20T08:10:41.157Z,3.22
2023-04-20T08:13:27.542Z,3.72
2023-04-20T08:16:12.823Z,3.90
2023-04-20T08:18:58.210Z,4.00
2023-04-20T08:21:43.904Z,4.00
2023-04-20T08:24:29.603Z,4.00
2023-04-20T08:27:14.832Z,4.13
2023-04-20T08:30:00.766Z,4.60
2023-04-20T08:32:46.577Z,3.97
2023-04-20T08:35:31.882Z,4.18
2023-04-20T08:38:20.797Z,3.85
2023-04-20T08:41:09.407Z,4.07
2023-04-20T08:43:54.988Z,4.32
2023-04-20T08:46:44.247Z,4.05
2023-04-20T08:49:30.650Z,3.92
2023-04-20T08:52:16.237Z,4.50
2023-04-20T08:55:01.814Z,4.35
2023-04-20T08:57:49.967Z,4.38
2023-04-20T09:00:35.386Z,4.50
2023-04-20T09:03:35.829Z,4.18
2023-04-20T09:06:23.381Z,4.20
2023-04-20T09:09:11.338Z,3.80
2023-04-20T09:12:15.021Z,4.50
2023-04-20T09:15:00.370Z,4.10
2023-04-20T09:17:46.262Z,4.03
2023-04-20T09:20:34.222Z,4.50
2023-04-20T09:23:21.611Z,4.22
2023-04-20T09:26:06.730Z,4.35
2023-04-20T09:28:52.097Z,4.22
2023-04-20T09:31:37.576Z,3.67
2023-04-20T09:34:25.613Z,4.35
2023-04-20T09:37:15.199Z,4.65
2023-04-20T09:40:00.812Z,4.15
2023-04-20T09:42:48.937Z,4.43
2023-04-20T09:45:34.778Z,4.15
2023-04-20T09:48:22.357Z,4.40
2023-04-20T09:51:08.099Z,4.00
2023-04-20T09:53:57.220Z,4.97
2023-04-20T09:56:42.437Z,4.40
2023-04-20T09:59:28.597Z,4.70
2023-04-20T10:02:14.865Z,4.53
2023-04-20T10:05:03.685Z,4.93
2023-04-20T10:08:00.482Z,5.00
2023-04-20T10:10:50.488Z,5.35
2023-04-20T10:13:37.649Z,4.78
2023-04-20T10:16:23.123Z,4.63
2023-04-20T10:19:09.268Z,4.80
2023-04-20T10:21:54.420Z,4.50
2023-04-20T10:24:40.086Z,4.65
2023-04-20T10:27:25.273Z,4.65
2023-04-20T10:30:11.534Z,5.00
2023-04-20T10:33:07.356Z,4.65
2023-04-20T10:35:58.899Z,5.20
2023-04-20T10:38:44.427Z,4.85
2023-04-20T10:41:29.848Z,4.82
2023-04-20T10:44:15.307Z,4.63
2023-04-20T10:47:02.528Z,4.72
2023-04-20T10:49:48.122Z,4.25
2023-04-20T10:52:41.580Z,4.40
2023-04-20T10:55:27.012Z,4.88
2023-04-20T10:58:25.090Z,4.80
2023-04-20T11:01:10.447Z,5.07
2023-04-20T11:03:56.120Z,5.35
2023-04-20T11:06:44.231Z,4.75
2023-04-20T11:09:30.821Z,5.22
2023-04-20T11:12:17.697Z,4.93
2023-04-20T11:15:03.069Z,5.25
2023-04-20T11:17:48.674Z,5.25
2023-04-20T11:20:34.369Z,4.63
2023-04-20T11:23:26.569Z,4.78
2023-04-20T11:26:12.021Z,4.88
2023-04-20T11:28:57.833Z,4.65
2023-04-20T11:31:50.541Z,5.32
2023-04-20T11:34:38.052Z,5.35
2023-04-20T11:37:23.545Z,4.68
2023-04-20T11:40:10.266Z,5.60
2023-04-20T11:42:55.781Z,5.45
2023-04-20T11:45:41.550Z,5.22
2023-04-20T11:48:31.204Z,5.18
2023-04-20T11:51:16.519Z,5.40
2023-04-20T11:54:02.452Z,5.28
2023-04-20T11:56:48.179Z,4.93
2023-04-20T11:59:33.608Z,5.00
2023-04-20T12:02:19.208Z,5.20
2023-04-20T12:05:04.748Z,5.82
2023-04-20T12:07:50.600Z,5.47
2023-04-20T12:10:36.076Z,5.28
2023-04-20T12:13:21.610Z,5.57
2023-04-20T12:16:07.373Z,5.75
2023-04-20T12:18:52.724Z,5.15
2023-04-20T12:21:38.101Z,5.43
2023-04-20T12:24:23.702Z,5.60
2023-04-20T12:27:09.139Z,5.70
2023-04-20T12:29:54.725Z,5.65
2023-04-20T12:32:40.334Z,5.55
2023-04-20T12:35:25.588Z,5.07
2023-04-20T12:38:13.296Z,5.47
2023-04-20T12:41:00.486Z,5.35
2023-04-20T12:43:45.906Z,5.57
2023-04-20T12:46:31.494Z,5.85
2023-04-20T12:49:16.972Z,5.70
2023-04-20T12:52:02.804Z,5.82
2023-04-20T12:54:48.186Z,6.10
2023-04-20T12:57:34.060Z,6.35
2023-04-20T13:00:19.759Z,5.93
2023-04-20T13:03:05.248Z,5.65
2023-04-20T13:05:50.991Z,5.78
2023-04-20T13:08:37.188Z,6.18
2023-04-20T13:11:22.679Z,5.60
2023-04-20T13:14:08.280Z,5.82
2023-04-20T13:16:55.202Z,6.15
2023-04-20T13:19:41.026Z,6.15
2023-04-20T13:22:26.571Z,6.18
2023-04-20T13:25:12.118Z,6.47
2023-04-20T13:27:57.806Z,6.35
2023-04-20T13:30:42.962Z,6.47
2023-04-20T13:33:28.525Z,6.38
2023-04-20T13:36:13.882Z,6.40
2023-04-20T13:38:59.450Z,6.35
2023-04-20T13:41:44.884Z,6.00
2023-04-20T13:44:30.401Z,6.28
2023-04-20T13:47:16.062Z,6.13
2023-04-20T13:50:03.381Z,6.45
2023-04-20T13:52:49.667Z,5.65
2023-04-20T13:55:34.923Z,5.50
2023-04-20T13:58:20.316Z,5.50
2023-04-20T14:01:15.219Z,5.57
2023-04-20T14:04:00.775Z,6.03
2023-04-20T14:06:46.296Z,5.68
2023-04-20T14:09:31.911Z,5.75
2023-04-20T14:12:17.179Z,6.32
2023-04-20T14:15:02.584Z,6.35
2023-04-20T14:17:51.731Z,5.47
2023-04-20T14:20:37.653Z,5.10
2023-04-20T14:23:22.981Z,5.07
2023-04-20T14:26:08.302Z,5.10
2023-04-20T14:28:54.589Z,5.50
2023-04-20T14:31:39.860Z,6.88
2023-04-20T14:34:25.395Z,7.32
2023-04-20T14:37:10.817Z,7.07
2023-04-20T14:39:56.880Z,7.30
2023-04-20T14:42:42.479Z,7.00
2023-04-20T14:45:29.120Z,7.28
2023-04-20T14:48:14.498Z,6.57
2023-04-20T14:51:00.432Z,6.55
2023-04-20T14:53:45.722Z,6.10
2023-04-20T14:56:34.275Z,6.80
2023-04-20T14:59:19.624Z,6.32
2023-04-20T15:02:05.751Z,6.57
2023-04-20T15:04:51.798Z,6.63
2023-04-20T15:07:37.564Z,6.78
2023-04-20T15:10:23.540Z,7.38
2023-04-20T15:13:09.131Z,7.10
2023-04-20T15:15:55.456Z,6.50
2023-04-20T15:18:41.122Z,6.95
2023-04-20T15:21:26.838Z,7.10
2023-04-20T15:24:11.919Z,6.13
2023-04-20T15:26:58.499Z,5.60
2023-04-20T15:29:43.801Z,5.88
2023-04-20T15:32:33.865Z,5.78
2023-04-20T15:35:19.438Z,5.32
2023-04-20T15:38:04.990Z,5.68
2023-04-20T15:40:51.646Z,5.88
2023-04-20T15:43:36.876Z,5.15
2023-04-20T15:46:24.313Z,5.68
2023-04-20T15:49:10.073Z,5.60
2023-04-20T15:51:56.290Z,6.03
2023-04-20T15:54:42.051Z,6.20
2023-04-20T15:57:28.786Z,6.15
2023-04-20T16:00:14.332Z,6.70
2023-04-20T16:03:01.445Z,6.78
2023-04-20T16:05:47.931Z,6.25
2023-04-20T16:08:33.909Z,6.40
2023-04-20T16:11:22.849Z,7.10
2023-04-20T16:14:08.126Z,6.90
2023-04-20T16:16:53.532Z,6.32
2023-04-20T16:19:39.146Z,6.20
2023-04-20T16:22:24.743Z,6.00
2023-04-20T16:25:13.772Z,5.78
2023-04-20T16:27:58.980Z,5.40
2023-04-20T16:30:44.523Z,5.30
2023-04-20T16:33:30.562Z,5.07
2023-04-20T16:36:16.916Z,5.25
2023-04-20T16:39:05.456Z,6.70
2023-04-20T16:41:51.116Z,6.35
2023-04-20T16:44:36.570Z,6.82
2023-04-20T16:47:22.574Z,6.70
2023-04-20T16:50:09.015Z,6.70
2023-04-20T16:52:54.728Z,5.70
2023-04-20T16:55:40.056Z,6.10
2023-04-20T16:58:25.663Z,6.40
2023-04-20T17:01:10.937Z,6.70
2023-04-20T17:03:56.329Z,6.13
2023-04-20T17:06:41.702Z,6.75
2023-04-20T17:09:27.977Z,6.38
2023-04-20T17:12:13.491Z,5.07
2023-04-20T17:14:59.023Z,4.85
2023-04-20T17:17:44.348Z,4.55
2023-04-20T17:20:29.951Z,5.28
2023-04-20T17:23:19.266Z,4.75
2023-04-20T17:26:04.560Z,4.47
2023-04-20T17:28:50.875Z,4.35
2023-04-20T17:31:36.266Z,4.40
2023-04-20T17:34:21.746Z,4.60
2023-04-20T17:37:07.232Z,4.30
2023-04-20T17:39:52.703Z,4.43
2023-04-20T17:42:38.155Z,4.65
2023-04-20T17:45:23.726Z,4.30
2023-04-20T17:48:09.347Z,4.78
2023-04-20T17:50:55.426Z,5.00
2023-04-20T17:53:42.019Z,4.40
2023-04-20T17:56:27.540Z,4.63
2023-04-20T17:59:12.905Z,4.50
2023-04-20T18:01:58.485Z,3.95
2023-04-20T18:04:43.989Z,4.13
2023-04-20T18:07:29.724Z,4.30
2023-04-20T18:10:15.731Z,4.40
2023-04-20T18:13:01.217Z,5.00
2023-04-20T18:15:46.739Z,4.95
2023-04-20T18:18:32.138Z,4.97
2023-04-20T18:21:17.192Z,4.57
2023-04-20T18:24:04.879Z,4.90
2023-04-20T18:26:50.285Z,5.20
2023-04-20T18:29:35.780Z,4.55
2023-04-20T18:32:21.418Z,5.22
2023-04-20T18:35:07.251Z,4.82
2023-04-20T18:37:53.438Z,6.30
2023-04-20T18:40:39.012Z,6.65
2023-04-20T18:43:24.298Z,6.55
2023-04-20T18:46:09.892Z,7.25
2023-04-20T18:48:55.310Z,6.63
2023-04-20T18:51:40.933Z,6.85
2023-04-20T18:54:28.714Z,7.07
2023-04-20T18:57:14.440Z,6.63
2023-04-20T18:59:59.893Z,6.55
2023-04-20T19:02:45.464Z,6.50
2023-04-20T19:05:30.770Z,7.22
2023-04-20T19:08:16.400Z,7.15
2023-04-20T19:11:01.719Z,7.97
2023-04-20T19:13:47.256Z,7.28
2023-04-20T19:16:33.709Z,7.60
2023-04-20T19:19:19.096Z,7.53
2023-04-20T19:22:04.556Z,7.55
2023-04-20T19:24:51.452Z,7.30
2023-04-20T19:27:37.145Z,7.75
2023-04-20T19:30:22.617Z,7.30
2023-04-20T19:33:07.908Z,7.45
2023-04-20T19:35:53.468Z,7.07
2023-04-20T19:38:38.760Z,7.60
2023-04-20T19:41:25.844Z,7.75
2023-04-20T19:44:14.173Z,7.28
2023-04-20T19:46:59.532Z,7.55
2023-04-20T19:49:45.166Z,7.07
2023-04-20T19:52:30.673Z,6.75
2023-04-20T19:55:16.479Z,6.57
2023-04-20T19:58:08.911Z,6.15
2023-04-20T20:00:54.403Z,7.22
2023-04-20T20:03:39.564Z,6.22
2023-04-20T20:06:25.395Z,6.28
2023-04-20T20:09:10.913Z,6.53
2023-04-20T20:11:56.255Z,6.97
2023-04-20T20:14:41.994Z,7.32
2023-04-20T20:17:27.436Z,7.75
2023-04-20T20:20:15.240Z,8.63
2023-04-20T20:23:00.474Z,7.55
2023-04-20T20:25:46.054Z,7.82
2023-04-20T20:28:31.521Z,7.60
2023-04-20T20:31:16.926Z,7.40
2023-04-20T20:34:02.435Z,7.40
2023-04-20T20:36:51.406Z,7.25
2023-04-20T20:39:36.933Z,7.75
2023-04-20T20:42:22.390Z,7.82
2023-04-20T20:45:13.280Z,8.27
2023-04-20T20:47:58.411Z,8.32
2023-04-20T20:50:44.089Z,7.28
2023-04-20T20:53:29.446Z,7.90
2023-04-20T20:56:14.806Z,8.50
2023-04-20T20:59:00.301Z,8.15
2023-04-20T21:01:45.656Z,8.45
2023-04-20T21:04:31.172Z,9.30
2023-04-20T21:07:16.240Z,9.32
2023-04-20T21:10:01.863Z,8.75
2023-04-20T21:12:47.007Z,9.50
2023-04-20T21:15:33.019Z,10.00
2023-04-20T21:18:18.340Z,10.00
2023-04-20T21:21:03.909Z,10.20
2023-04-20T21:23:51.425Z,9.60
2023-04-20T21:26:36.876Z,9.70
2023-04-20T21:29:22.217Z,10.55
2023-04-20T21:32:07.699Z,9.55
2023-04-20T21:34:53.390Z,10.30
2023-04-20T21:37:38.655Z,9.88
2023-04-20T21:40:25.278Z,9.80
2023-04-20T21:43:11.049Z,10.35
2023-04-20T21:45:56.327Z,9.88
2023-04-20T21:48:42.076Z,9.40
2023-04-20T21:51:27.736Z,9.50
2023-04-20T21:54:13.116Z,9.80
2023-04-20T21:56:59.305Z,9.38
2023-04-20T21:59:44.906Z,9.63
2023-04-20T22:02:30.716Z,9.35
2023-04-20T22:05:16.410Z,10.00
2023-04-20T22:08:02.471Z,9.75
2023-04-20T22:10:49.000Z,10.85
2023-04-20T22:13:35.552Z,10.85
2023-04-20T22:16:21.816Z,11.40
2023-04-20T22:19:07.644Z,11.68
2023-04-20T22:21:53.076Z,12.07
2023-04-20T22:24:38.606Z,12.60
2023-04-20T22:27:25.475Z,12.77
2023-04-20T22:30:11.483Z,12.23
2023-04-20T22:32:56.881Z,12.32
2023-04-20T22:35:42.651Z,12.30
2023-04-20T22:38:28.025Z,12.27
2023-04-20T22:41:14.763Z,12.75
2023-04-20T22:44:01.999Z,11.75
2023-04-20T22:46:47.228Z,11.65
2023-04-20T22:49:32.736Z,11.25
2023-04-20T22:52:18.031Z,11.80
2023-04-20T22:55:03.665Z,11.93
2023-04-20T22:57:49.010Z,11.88
2023-04-20T23:00:34.479Z,11.95
2023-04-20T23:03:20.065Z,11.70
2023-04-20T23:06:07.082Z,12.00
2023-04-20T23:08:52.559Z,11.63
2023-04-20T23:11:41.395Z,11.82
2023-04-20T23:14:27.997Z,12.15
2023-04-20T23:17:13.426Z,12.07
2023-04-20T23:19:58.804Z,10.80
2023-04-20T23:22:44.160Z,11.82
2023-04-20T23:25:29.478Z,11.93
2023-04-20T23:28:14.928Z,11.57
2023-04-20T23:31:00.331Z,12.15
2023-04-20T23:33:46.497Z,12.05
2023-04-20T23:36:32.449Z,12.30
2023-04-20T23:39:17.658Z,12.45
2023-04-20T23:42:04.678Z,12.13
2023-04-20T23:44:49.961Z,12.02
2023-04-20T23:47:35.600Z,11.77
2023-04-20T23:50:21.242Z,11.15
2023-04-20T23:53:09.554Z,11.80
2023-04-20T23:55:59.848Z,12.45
2023-04-20T23:58:45.438Z,12.30
